createdAt,value
2022-08-27T00:01:49.241Z,34.13
2022-08-27T00:04:17.144Z,29.73
2022-08-27T00:06:46.185Z,34.80
2022-08-27T00:09:14.377Z,32.53
2022-08-27T00:11:44.984Z,32.43
2022-08-27T00:14:12.909Z,33.63
2022-08-27T00:16:42.719Z,32.63
2022-08-27T00:19:11.486Z,24.23
2022-08-27T00:21:39.657Z,26.27
2022-08-27T00:24:07.412Z,32.30
2022-08-27T00:26:35.700Z,30.93
2022-08-27T00:29:05.081Z,30.67
2022-08-27T00:31:32.845Z,38.67
2022-08-27T00:34:02.337Z,36.90
2022-08-27T00:36:29.964Z,29.60
2022-08-27T00:38:57.624Z,28.33
2022-08-27T00:41:25.425Z,34.43
2022-08-27T00:43:57.163Z,23.93
2022-08-27T00:46:29.041Z,31.80
2022-08-27T00:48:59.397Z,25.60
2022-08-27T00:51:29.406Z,34.30
2022-08-27T00:53:59.793Z,27.07
2022-08-27T00:56:30.340Z,32.43
2022-08-27T00:58:58.120Z,35.90
2022-08-27T01:01:28.153Z,24.20
2022-08-27T01:03:59.537Z,36.97
2022-08-27T01:06:33.133Z,32.00
2022-08-27T01:09:06.085Z,35.17
2022-08-27T01:11:33.935Z,24.17
2022-08-27T01:14:01.694Z,31.53
2022-08-27T01:16:35.645Z,33.23
2022-08-27T01:19:08.197Z,31.00
2022-08-27T01:21:43.912Z,29.17
2022-08-27T01:24:24.996Z,29.13
2022-08-27T01:26:53.296Z,27.97
2022-08-27T01:29:21.001Z,26.90
2022-08-27T01:31:48.599Z,33.87
2022-08-27T01:34:16.650Z,35.63
2022-08-27T01:36:44.216Z,30.10
2022-08-27T01:39:11.761Z,32.73
2022-08-27T01:41:42.232Z,31.10
2022-08-27T01:44:09.768Z,31.97
2022-08-27T01:46:37.394Z,29.00
2022-08-27T01:49:04.996Z,38.53
2022-08-27T01:51:32.544Z,30.27
2022-08-27T01:54:00.131Z,29.10
2022-08-27T01:56:27.830Z,25.60
2022-08-27T01:58:56.733Z,22.70
2022-08-27T02:01:24.592Z,22.83
2022-08-27T02:03:52.150Z,34.77
2022-08-27T02:06:19.745Z,21.33
2022-08-27T02:08:47.370Z,27.80
2022-08-27T02:11:14.941Z,27.37
2022-08-27T02:13:42.608Z,26.73
2022-08-27T02:16:11.631Z,26.60
2022-08-27T02:18:41.788Z,29.40
2022-08-27T02:21:10.477Z,25.90
2022-08-27T02:23:39.585Z,24.20
2022-08-27T02:26:07.456Z,24.07
2022-08-27T02:28:35.484Z,24.57
2022-08-27T02:31:03.337Z,28.80
2022-08-27T02:33:32.868Z,25.97
2022-08-27T02:36:00.613Z,28.53
2022-08-27T02:38:28.257Z,30.83
2022-08-27T02:40:55.881Z,24.60
2022-08-27T02:43:25.331Z,26.63
2022-08-27T02:45:53.343Z,30.10
2022-08-27T02:48:21.386Z,35.27
2022-08-27T02:50:50.785Z,25.33
2022-08-27T02:53:19.365Z,21.80
2022-08-27T02:55:47.044Z,31.43
2022-08-27T02:58:16.700Z,16.40
2022-08-27T03:00:44.697Z,20.53
2022-08-27T03:03:12.325Z,19.43
2022-08-27T03:05:40.471Z,20.70
2022-08-27T03:08:09.834Z,23.70
2022-08-27T03:10:37.481Z,15.57
2022-08-27T03:13:05.097Z,15.87
2022-08-27T03:15:32.673Z,11.60
2022-08-27T03:18:17.853Z,13.30
2022-08-27T03:20:48.057Z,22.00
2022-08-27T03:23:18.280Z,15.93
2022-08-27T03:25:51.121Z,13.53
2022-08-27T03:28:23.243Z,13.00
2022-08-27T03:30:53.517Z,19.33
2022-08-27T03:33:22.753Z,16.77
2022-08-27T03:35:52.040Z,13.33
2022-08-27T03:38:23.308Z,19.30
2022-08-27T03:40:51.293Z,13.00
2022-08-27T03:43:21.280Z,16.70
2022-08-27T03:46:01.569Z,17.80
2022-08-27T03:48:30.781Z,13.80
2022-08-27T03:50:58.700Z,16.70
2022-08-27T03:53:28.249Z,15.20
2022-08-27T03:55:55.825Z,16.23
2022-08-27T03:58:23.420Z,15.50
2022-08-27T04:00:50.977Z,19.00
2022-08-27T04:03:18.580Z,15.43
2022-08-27T04:05:46.128Z,18.33
2022-08-27T04:08:13.789Z,27.60
2022-08-27T04:10:43.275Z,19.63
2022-08-27T04:13:11.100Z,21.10
2022-08-27T04:15:43.804Z,17.07
2022-08-27T04:18:11.934Z,20.90
2022-08-27T04:20:39.897Z,14.93
2022-08-27T04:23:07.484Z,18.30
2022-08-27T04:25:35.026Z,16.33
2022-08-27T04:28:04.384Z,15.73
2022-08-27T04:30:32.898Z,14.77
2022-08-27T04:33:00.540Z,17.40
2022-08-27T04:35:28.072Z,18.50
2022-08-27T04:37:55.626Z,16.17
2022-08-27T04:40:43.152Z,11.63
2022-08-27T04:43:13.848Z,18.27
2022-08-27T04:45:45.751Z,22.83
2022-08-27T04:48:14.719Z,11.97
2022-08-27T04:50:43.192Z,17.03
2022-08-27T04:53:11.645Z,13.83
2022-08-27T04:55:42.586Z,17.87
2022-08-27T04:58:11.818Z,17.43
2022-08-27T05:00:43.313Z,18.93
2022-08-27T05:03:10.962Z,17.90
2022-08-27T05:05:38.729Z,13.67
2022-08-27T05:08:13.056Z,15.27
2022-08-27T05:10:42.371Z,19.13
2022-08-27T05:13:10.305Z,13.07
2022-08-27T05:15:39.817Z,15.27
2022-08-27T05:18:09.088Z,13.83
2022-08-27T05:20:43.641Z,13.07
2022-08-27T05:23:11.337Z,11.80
2022-08-27T05:25:40.264Z,9.53
2022-08-27T05:28:07.884Z,13.13
2022-08-27T05:30:41.165Z,13.77
2022-08-27T05:33:10.238Z,16.27
2022-08-27T05:35:41.395Z,12.03
2022-08-27T05:38:09.787Z,15.70
2022-08-27T05:40:38.210Z,9.80
2022-08-27T05:43:06.385Z,6.90
2022-08-27T05:45:34.320Z,13.80
2022-08-27T05:48:03.602Z,12.67
2022-08-27T05:50:31.207Z,15.13
2022-08-27T05:52:59.317Z,10.97
2022-08-27T05:55:26.913Z,9.00
2022-08-27T05:57:54.477Z,9.00
2022-08-27T06:00:39.723Z,8.53
2022-08-27T06:03:09.915Z,9.73
2022-08-27T06:05:37.572Z,7.80
2022-08-27T06:08:05.613Z,7.73
2022-08-27T06:10:33.410Z,7.30
2022-08-27T06:13:00.961Z,9.20
2022-08-27T06:15:29.363Z,10.50
2022-08-27T06:17:57.057Z,10.10
2022-08-27T06:20:26.125Z,13.50
2022-08-27T06:22:55.601Z,7.63
2022-08-27T06:25:23.180Z,12.80
2022-08-27T06:27:50.741Z,13.57
2022-08-27T06:30:18.433Z,6.90
2022-08-27T06:32:46.445Z,8.30
2022-08-27T06:35:14.004Z,5.97
2022-08-27T06:37:42.880Z,5.57
2022-08-27T06:40:11.826Z,18.60
2022-08-27T06:42:39.399Z,11.73
2022-08-27T06:45:08.485Z,6.87
2022-08-27T06:47:36.037Z,7.03
2022-08-27T06:50:04.065Z,12.13
2022-08-27T06:52:31.723Z,15.13
2022-08-27T06:55:00.697Z,14.17
2022-08-27T06:57:28.449Z,10.80
2022-08-27T06:59:56.090Z,12.53
2022-08-27T07:02:23.946Z,10.50
2022-08-27T07:04:54.289Z,9.60
2022-08-27T07:07:32.570Z,10.57
2022-08-27T07:10:08.460Z,8.83
2022-08-27T07:12:36.053Z,9.13
2022-08-27T07:15:05.317Z,9.70
2022-08-27T07:17:32.889Z,10.60
2022-08-27T07:20:01.260Z,10.97
2022-08-27T07:22:29.747Z,7.83
2022-08-27T07:24:57.345Z,8.27
2022-08-27T07:27:26.253Z,15.33
2022-08-27T07:29:53.989Z,7.63
2022-08-27T07:32:21.553Z,8.33
2022-08-27T07:34:57.993Z,14.63
2022-08-27T07:37:28.578Z,6.30
2022-08-27T07:40:04.070Z,8.77
2022-08-27T07:42:50.361Z,7.93
2022-08-27T07:45:18.098Z,7.97
2022-08-27T07:47:46.338Z,7.70
2022-08-27T07:50:14.178Z,7.53
2022-08-27T07:52:43.780Z,6.50
2022-08-27T07:55:11.607Z,10.63
2022-08-27T07:57:41.958Z,11.70
2022-08-27T08:00:11.480Z,8.63
2022-08-27T08:02:41.944Z,18.10
2022-08-27T08:05:10.693Z,11.90
2022-08-27T08:07:38.650Z,11.37
2022-08-27T08:10:07.285Z,8.83
2022-08-27T08:12:36.229Z,8.70
2022-08-27T08:15:07.084Z,12.47
2022-08-27T08:17:35.180Z,10.07
2022-08-27T08:20:19.862Z,9.83
2022-08-27T08:22:50.685Z,11.57
2022-08-27T08:25:18.941Z,11.63
2022-08-27T08:27:48.047Z,9.77
2022-08-27T08:30:17.245Z,6.80
2022-08-27T08:32:44.815Z,10.57
2022-08-27T08:35:12.574Z,11.77
2022-08-27T08:37:40.198Z,10.53
2022-08-27T08:40:09.115Z,9.43
2022-08-27T08:42:42.164Z,12.10
2022-08-27T08:45:19.973Z,8.73
2022-08-27T08:47:52.180Z,8.03
2022-08-27T08:50:26.117Z,12.50
2022-08-27T08:53:00.036Z,10.70
2022-08-27T08:55:41.184Z,7.73
2022-08-27T08:58:16.174Z,11.30
2022-08-27T09:00:47.305Z,10.03
2022-08-27T09:03:17.269Z,5.87
2022-08-27T09:05:49.805Z,7.27
2022-08-27T09:08:36.549Z,7.10
2022-08-27T09:11:13.333Z,8.77
2022-08-27T09:13:44.198Z,6.07
2022-08-27T09:16:13.184Z,8.27
2022-08-27T09:18:42.110Z,6.80
2022-08-27T09:21:27.563Z,9.77
2022-08-27T09:24:05.946Z,10.00
2022-08-27T09:26:38.802Z,8.37
2022-08-27T09:29:19.847Z,10.33
2022-08-27T09:31:54.677Z,7.43
2022-08-27T09:34:23.357Z,12.50
2022-08-27T09:36:57.008Z,9.03
2022-08-27T09:39:30.197Z,9.63
2022-08-27T09:41:58.425Z,12.53
2022-08-27T09:44:25.992Z,13.40
2022-08-27T09:46:58.632Z,7.97
2022-08-27T09:49:27.383Z,7.77
2022-08-27T09:51:56.761Z,9.20
2022-08-27T09:54:37.784Z,5.83
2022-08-27T09:57:06.972Z,8.23
2022-08-27T09:59:37.586Z,9.83
2022-08-27T10:02:15.065Z,8.73
2022-08-27T10:04:51.415Z,8.27
2022-08-27T10:07:31.544Z,6.27
2022-08-27T10:10:10.669Z,7.43
2022-08-27T10:12:48.642Z,8.63
2022-08-27T10:15:16.859Z,7.00
2022-08-27T10:17:58.478Z,12.43
2022-08-27T10:20:35.482Z,11.03
2022-08-27T10:23:13.062Z,6.70
2022-08-27T10:25:49.180Z,10.10
2022-08-27T10:28:29.555Z,6.03
2022-08-27T10:31:16.167Z,8.90
2022-08-27T10:33:57.972Z,10.87
2022-08-27T10:36:36.528Z,7.20
2022-08-27T10:39:12.464Z,7.57
2022-08-27T10:41:44.279Z,9.13
2022-08-27T10:44:26.718Z,8.47
2022-08-27T10:47:11.401Z,6.13
2022-08-27T10:49:50.957Z,7.60
2022-08-27T10:52:24.798Z,8.40
2022-08-27T10:54:57.989Z,10.43
2022-08-27T10:57:55.157Z,7.50
2022-08-27T11:00:26.085Z,6.13
2022-08-27T11:02:56.051Z,10.60
2022-08-27T11:05:28.848Z,12.60
2022-08-27T11:08:01.321Z,7.37
2022-08-27T11:10:30.818Z,5.83
2022-08-27T11:13:01.373Z,6.67
2022-08-27T11:15:33.777Z,5.80
2022-08-27T11:18:06.596Z,12.07
2022-08-27T11:20:42.087Z,6.03
2022-08-27T11:23:13.273Z,5.13
2022-08-27T11:25:51.749Z,5.23
2022-08-27T11:28:29.687Z,11.40
2022-08-27T11:31:05.709Z,7.60
2022-08-27T11:33:42.821Z,6.83
2022-08-27T11:36:41.280Z,6.67
2022-08-27T11:39:23.554Z,6.63
2022-08-27T11:42:01.411Z,10.03
2022-08-27T11:44:29.725Z,7.67
2022-08-27T11:47:09.255Z,7.07
2022-08-27T11:49:45.380Z,4.70
2022-08-27T11:52:24.942Z,7.37
2022-08-27T11:54:58.545Z,9.57
2022-08-27T11:57:32.707Z,7.93
2022-08-27T12:00:16.971Z,4.70
2022-08-27T12:02:46.005Z,6.43
2022-08-27T12:05:26.713Z,5.60
2022-08-27T12:07:55.913Z,7.20
2022-08-27T12:10:34.089Z,5.00
2022-08-27T12:13:17.246Z,8.70
2022-08-27T12:15:55.519Z,5.40
2022-08-27T12:18:53.678Z,8.70
2022-08-27T12:21:30.329Z,7.70
2022-08-27T12:24:32.293Z,7.67
2022-08-27T12:27:02.602Z,3.67
2022-08-27T12:29:41.148Z,6.67
2022-08-27T12:32:26.213Z,4.10
2022-08-27T12:35:02.301Z,5.00
2022-08-27T12:37:32.295Z,8.60
2022-08-27T12:40:06.743Z,8.17
2022-08-27T12:42:34.485Z,5.20
2022-08-27T12:45:02.189Z,9.60
2022-08-27T12:47:36.701Z,5.10
2022-08-27T12:50:04.685Z,9.37
2022-08-27T12:52:53.604Z,6.83
2022-08-27T12:55:36.219Z,9.60
2022-08-27T12:58:15.509Z,5.57
2022-08-27T13:01:19.841Z,6.13
2022-08-27T13:03:50.302Z,4.77
2022-08-27T13:06:19.929Z,6.27
2022-08-27T13:08:54.599Z,5.97
2022-08-27T13:11:25.720Z,7.20
2022-08-27T13:14:04.660Z,4.63
2022-08-27T13:16:32.420Z,4.10
2022-08-27T13:19:00.246Z,5.87
2022-08-27T13:21:29.729Z,5.10
2022-08-27T13:23:59.644Z,8.67
2022-08-27T13:26:31.526Z,10.33
2022-08-27T13:29:03.331Z,6.37
2022-08-27T13:31:32.917Z,10.50
2022-08-27T13:34:01.978Z,4.73
2022-08-27T13:36:31.951Z,6.40
2022-08-27T13:39:00.358Z,4.83
2022-08-27T13:41:33.285Z,5.53
2022-08-27T13:44:09.273Z,5.27
2022-08-27T13:46:47.590Z,7.23
2022-08-27T13:49:21.853Z,5.33
2022-08-27T13:51:50.828Z,7.33
2022-08-27T13:54:19.575Z,7.80
2022-08-27T13:57:08.057Z,7.10
2022-08-27T13:59:41.954Z,8.03
2022-08-27T14:02:24.700Z,6.67
2022-08-27T14:05:06.793Z,6.30
2022-08-27T14:07:36.141Z,4.90
2022-08-27T14:10:06.780Z,6.90
2022-08-27T14:12:39.259Z,10.47
2022-08-27T14:15:20.701Z,5.87
2022-08-27T14:17:48.933Z,4.63
2022-08-27T14:20:18.269Z,8.03
2022-08-27T14:22:47.022Z,9.30
2022-08-27T14:25:15.090Z,7.10
2022-08-27T14:27:54.496Z,9.30
2022-08-27T14:30:29.697Z,11.43
2022-08-27T14:33:00.137Z,5.90
2022-08-27T14:35:28.653Z,4.63
2022-08-27T14:37:56.416Z,6.13
2022-08-27T14:40:24.176Z,5.97
2022-08-27T14:42:53.128Z,7.80
2022-08-27T14:45:20.779Z,8.00
2022-08-27T14:47:48.417Z,9.50
2022-08-27T14:50:16.253Z,20.63
2022-08-27T14:52:43.916Z,5.87
2022-08-27T14:55:11.778Z,8.60
2022-08-27T14:57:39.583Z,6.13
2022-08-27T15:00:11.065Z,7.40
2022-08-27T15:02:43.957Z,9.87
2022-08-27T15:05:16.344Z,11.23
2022-08-27T15:07:47.110Z,8.00
2022-08-27T15:10:15.795Z,11.00
2022-08-27T15:12:44.116Z,7.20
2022-08-27T15:15:15.273Z,9.00
2022-08-27T15:17:43.164Z,9.53
2022-08-27T15:20:20.006Z,12.00
2022-08-27T15:22:51.882Z,10.73
2022-08-27T15:25:20.291Z,6.37
2022-08-27T15:27:47.997Z,13.87
2022-08-27T15:30:19.190Z,11.07
2022-08-27T15:32:49.192Z,6.77
2022-08-27T15:35:19.477Z,12.03
2022-08-27T15:37:47.172Z,8.77
2022-08-27T15:40:16.942Z,8.50
2022-08-27T15:42:45.201Z,12.30
2022-08-27T15:45:14.852Z,8.63
2022-08-27T15:47:43.941Z,8.40
2022-08-27T15:50:12.205Z,9.13
2022-08-27T15:52:40.984Z,12.27
2022-08-27T15:55:20.786Z,11.63
2022-08-27T15:57:48.477Z,8.73
2022-08-27T16:00:17.677Z,17.10
2022-08-27T16:02:47.320Z,10.37
2022-08-27T16:05:16.731Z,7.47
2022-08-27T16:07:44.506Z,5.23
2022-08-27T16:10:12.775Z,11.10
2022-08-27T16:12:40.348Z,6.83
2022-08-27T16:15:09.528Z,8.37
2022-08-27T16:17:37.454Z,6.13
2022-08-27T16:20:08.642Z,10.40
2022-08-27T16:22:36.357Z,7.83
2022-08-27T16:25:06.380Z,9.33
2022-08-27T16:27:34.451Z,5.57
2022-08-27T16:30:02.172Z,12.13
2022-08-27T16:32:32.229Z,6.67
2022-08-27T16:35:00.462Z,7.17
2022-08-27T16:37:29.406Z,7.80
2022-08-27T16:39:57.147Z,5.20
2022-08-27T16:42:24.919Z,7.37
2022-08-27T16:44:52.757Z,7.80
2022-08-27T16:47:20.313Z,8.50
2022-08-27T16:50:05.481Z,8.67
2022-08-27T16:52:36.108Z,10.73
2022-08-27T16:55:03.767Z,8.60
2022-08-27T16:57:31.444Z,9.20
2022-08-27T16:59:59.004Z,8.73
2022-08-27T17:02:31.249Z,10.97
2022-08-27T17:05:12.207Z,9.37
2022-08-27T17:07:49.295Z,11.57
2022-08-27T17:10:18.230Z,12.60
2022-08-27T17:12:47.638Z,7.97
2022-08-27T17:15:16.785Z,5.23
2022-08-27T17:17:45.107Z,10.83
2022-08-27T17:20:14.878Z,7.10
2022-08-27T17:22:42.582Z,6.33
2022-08-27T17:25:11.894Z,9.13
2022-08-27T17:27:39.662Z,14.57
2022-08-27T17:30:08.865Z,9.67
2022-08-27T17:32:39.761Z,11.60
2022-08-27T17:35:10.541Z,9.17
2022-08-27T17:37:38.486Z,6.47
2022-08-27T17:40:07.037Z,16.23
2022-08-27T17:42:35.981Z,15.23
2022-08-27T17:45:05.349Z,9.20
2022-08-27T17:47:32.900Z,10.17
2022-08-27T17:50:00.456Z,10.60
2022-08-27T17:52:28.065Z,14.37
2022-08-27T17:54:56.662Z,13.83
2022-08-27T17:57:26.967Z,17.77
2022-08-27T18:00:00.462Z,10.23
2022-08-27T18:02:35.466Z,11.93
2022-08-27T18:05:03.323Z,10.00
2022-08-27T18:07:31.448Z,12.40
2022-08-27T18:09:59.449Z,14.17
2022-08-27T18:12:28.525Z,10.10
2022-08-27T18:15:05.433Z,11.70
2022-08-27T18:17:33.224Z,15.73
2022-08-27T18:20:01.161Z,13.63
2022-08-27T18:22:28.708Z,11.20
2022-08-27T18:25:02.917Z,14.40
2022-08-27T18:27:33.709Z,14.43
2022-08-27T18:30:03.584Z,22.57
2022-08-27T18:32:31.185Z,11.53
2022-08-27T18:35:02.091Z,8.40
2022-08-27T18:37:30.020Z,14.33
2022-08-27T18:39:57.642Z,9.90
2022-08-27T18:42:25.207Z,15.27
2022-08-27T18:44:52.806Z,9.17
2022-08-27T18:47:21.734Z,16.53
2022-08-27T18:49:49.429Z,13.47
2022-08-27T18:52:23.761Z,9.13
2022-08-27T18:54:51.504Z,17.00
2022-08-27T18:57:19.076Z,16.33
2022-08-27T18:59:46.962Z,11.13
2022-08-27T19:02:19.267Z,11.40
2022-08-27T19:04:48.733Z,9.30
2022-08-27T19:07:16.369Z,12.57
2022-08-27T19:09:43.924Z,13.47
2022-08-27T19:12:12.861Z,10.60
2022-08-27T19:14:42.837Z,12.33
2022-08-27T19:17:22.229Z,14.90
2022-08-27T19:19:52.617Z,13.10
2022-08-27T19:22:20.671Z,10.60
2022-08-27T19:24:50.028Z,12.10
2022-08-27T19:27:24.320Z,15.87
2022-08-27T19:29:53.138Z,12.00
2022-08-27T19:32:21.793Z,9.30
2022-08-27T19:34:50.696Z,10.17
2022-08-27T19:37:22.735Z,15.17
2022-08-27T19:39:50.774Z,9.70
2022-08-27T19:42:18.702Z,14.87
2022-08-27T19:44:46.304Z,14.50
2022-08-27T19:47:16.668Z,8.53
2022-08-27T19:49:49.689Z,13.40
2022-08-27T19:52:18.681Z,9.63
2022-08-27T19:55:12.210Z,8.67
2022-08-27T19:57:33.797Z,13.03
2022-08-27T20:00:01.403Z,17.73
2022-08-27T20:02:29.138Z,13.00
2022-08-27T20:05:17.002Z,9.43
2022-08-27T20:07:45.668Z,19.00
2022-08-27T20:10:13.288Z,11.47
2022-08-27T20:12:44.399Z,6.20
2022-08-27T20:15:12.981Z,11.10
2022-08-27T20:17:41.168Z,11.20
2022-08-27T20:20:09.954Z,17.13
2022-08-27T20:22:39.602Z,7.70
2022-08-27T20:25:09.848Z,13.07
2022-08-27T20:27:37.932Z,11.73
2022-08-27T20:30:06.720Z,15.83
2022-08-27T20:32:35.485Z,10.20
2022-08-27T20:35:03.377Z,18.30
2022-08-27T20:37:30.955Z,11.80
2022-08-27T20:39:58.594Z,15.20
2022-08-27T20:42:27.532Z,18.30
2022-08-27T20:44:55.316Z,15.47
2022-08-27T20:47:26.446Z,12.70
2022-08-27T20:49:54.012Z,16.03
2022-08-27T20:52:22.096Z,13.97
2022-08-27T20:54:49.661Z,15.37
2022-08-27T20:57:17.228Z,22.00
2022-08-27T21:00:03.912Z,12.00
2022-08-27T21:02:31.602Z,15.10
2022-08-27T21:04:59.290Z,18.10
2022-08-27T21:07:26.908Z,7.07
2022-08-27T21:09:57.172Z,10.70
2022-08-27T21:12:25.632Z,12.87
2022-08-27T21:14:56.441Z,22.80
2022-08-27T21:17:24.770Z,16.60
2022-08-27T21:19:52.615Z,14.23
2022-08-27T21:22:20.408Z,18.70
2022-08-27T21:24:48.095Z,11.60
2022-08-27T21:27:16.161Z,12.10
2022-08-27T21:29:44.849Z,13.93
2022-08-27T21:32:14.868Z,19.70
2022-08-27T21:34:42.694Z,11.93
2022-08-27T21:37:11.002Z,10.70
2022-08-27T21:39:39.078Z,13.67
2022-08-27T21:42:07.399Z,15.33
2022-08-27T21:44:35.756Z,16.50
2022-08-27T21:47:03.786Z,12.50
2022-08-27T21:49:33.673Z,12.93
2022-08-27T21:52:03.239Z,16.90
2022-08-27T21:54:32.780Z,15.50
2022-08-27T21:57:03.015Z,11.83
2022-08-27T21:59:30.733Z,11.93
2022-08-27T22:02:00.823Z,12.37
2022-08-27T22:04:29.813Z,18.13
2022-08-27T22:07:00.725Z,19.63
2022-08-27T22:09:28.576Z,22.23
2022-08-27T22:11:56.897Z,11.70
2022-08-27T22:14:24.561Z,16.50
2022-08-27T22:16:52.308Z,16.00
2022-08-27T22:19:21.349Z,11.40
2022-08-27T22:21:49.314Z,14.67
2022-08-27T22:24:18.461Z,11.97
2022-08-27T22:26:46.038Z,16.07
2022-08-27T22:29:16.296Z,14.13
2022-08-27T22:31:44.031Z,14.73
2022-08-27T22:34:14.918Z,20.90
2022-08-27T22:36:43.257Z,9.57
2022-08-27T22:39:10.890Z,15.77
2022-08-27T22:41:40.630Z,15.70
2022-08-27T22:44:12.010Z,10.17
2022-08-27T22:46:39.712Z,11.57
2022-08-27T22:49:07.318Z,14.53
2022-08-27T22:51:34.957Z,8.33
2022-08-27T22:54:02.597Z,13.90
2022-08-27T22:56:30.202Z,15.13
2022-08-27T22:58:59.166Z,12.43
2022-08-27T23:01:26.819Z,14.73
2022-08-27T23:03:55.027Z,17.17
2022-08-27T23:06:22.809Z,11.37
2022-08-27T23:08:50.363Z,12.13
2022-08-27T23:11:18.281Z,19.37
2022-08-27T23:13:47.257Z,17.30
2022-08-27T23:16:16.751Z,22.80
2022-08-27T23:18:45.608Z,16.87
2022-08-27T23:21:13.197Z,14.43
2022-08-27T23:23:40.854Z,14.13
2022-08-27T23:26:26.308Z,14.57
2022-08-27T23:28:54.845Z,18.30
2022-08-27T23:31:23.914Z,13.87
2022-08-27T23:33:52.073Z,18.90
2022-08-27T23:36:19.840Z,15.67
2022-08-27T23:38:47.409Z,14.20
2022-08-27T23:41:16.273Z,13.57
2022-08-27T23:43:44.134Z,17.00
2022-08-27T23:46:12.161Z,11.50
2022-08-27T23:48:41.156Z,29.50
2022-08-27T23:51:09.987Z,19.63
2022-08-27T23:53:38.752Z,16.63
2022-08-27T23:56:07.072Z,18.77
2022-08-27T23:58:34.818Z,21.87
